Time;durP1;ratioP1;P1;durP2;ratioP2;P2;SDS_P1;SDS_P2;PMS_P1;PMS_P2;Temp;Humidity;BMP_temperature;BMP_pressure;BME280_temperature;BME280_humidity;BME280_pressure;Samples;Min_cycle;Max_cycle;Signal;HPM_P1;HPM_P2
2021/07/17 00:00:29;;;;;;;35.05;18.38;;;;;;;17.46;100.00;101990.75;4941627;28;20059;-91
2021/07/17 00:02:54;;;;;;;40.78;18.83;;;;;;;17.44;100.00;101992.81;4941774;28;20513;-89
2021/07/17 00:05:21;;;;;;;39.88;18.10;;;;;;;17.44;100.00;101993.66;4940567;28;20297;-91
2021/07/17 00:07:47;;;;;;;36.28;17.45;;;;;;;17.45;100.00;101999.94;4941028;28;20505;-91
2021/07/17 00:10:21;;;;;;;31.23;17.60;;;;;;;17.44;100.00;101992.81;4942718;28;20050;-90
2021/07/17 00:12:48;;;;;;;34.83;18.23;;;;;;;17.43;100.00;101996.53;4941538;28;20075;-90
2021/07/17 00:15:16;;;;;;;39.05;19.27;;;;;;;17.42;100.00;101998.41;4942823;28;20047;-89
2021/07/17 00:17:43;;;;;;;36.67;18.85;;;;;;;17.41;100.00;101988.59;4942881;28;20039;-90
2021/07/17 00:20:10;;;;;;;43.58;18.88;;;;;;;17.40;100.00;101991.47;4944277;28;20047;-90
2021/07/17 00:22:36;;;;;;;41.47;18.85;;;;;;;17.40;100.00;101991.47;4945220;28;20043;-91
2021/07/17 00:25:04;;;;;;;37.70;18.45;;;;;;;17.37;100.00;101987.25;4946883;28;20313;-89
2021/07/17 00:27:30;;;;;;;36.45;17.75;;;;;;;17.37;100.00;101985.38;4980503;28;20046;-90
2021/07/17 00:29:55;;;;;;;37.28;17.50;;;;;;;17.39;100.00;101995.22;4976318;28;20142;-91
2021/07/17 00:32:20;;;;;;;37.10;18.73;;;;;;;17.36;100.00;101993.72;4962087;28;20054;-91
2021/07/17 00:34:46;;;;;;;33.15;17.67;;;;;;;17.32;100.00;101995.94;4955943;28;20054;-89
2021/07/17 00:37:11;;;;;;;37.28;18.08;;;;;;;17.34;100.00;102001.19;4972562;28;20073;-89
2021/07/17 00:39:36;;;;;;;34.13;18.85;;;;;;;17.33;100.00;102004.91;4963500;28;20042;-91
2021/07/17 00:42:02;;;;;;;31.70;17.27;;;;;;;17.32;100.00;102004.09;4978795;28;20049;-90
2021/07/17 00:44:27;;;;;;;38.00;17.65;;;;;;;17.30;100.00;102000.69;4976624;28;20160;-89
2021/07/17 00:46:53;;;;;;;36.30;18.17;;;;;;;17.27;100.00;101998.34;4975411;28;20451;-92
2021/07/17 00:49:21;;;;;;;35.78;17.77;;;;;;;17.29;100.00;101999.03;4976482;28;20042;-90
2021/07/17 00:51:47;;;;;;;34.08;17.30;;;;;;;17.25;100.00;102000.38;4941914;28;20046;-91
2021/07/17 00:54:17;;;;;;;34.70;16.70;;;;;;;17.25;100.00;101996.84;4945059;28;20039;-90
2021/07/17 00:56:44;;;;;;;34.20;18.25;;;;;;;17.22;100.00;101992.59;4942660;28;20117;-90
2021/07/17 00:59:10;;;;;;;36.03;18.50;;;;;;;17.23;100.00;102002.41;4944230;28;20182;-91
2021/07/17 01:01:35;;;;;;;34.65;17.95;;;;;;;17.23;100.00;102001.59;4944477;28;20522;-90
2021/07/17 01:04:02;;;;;;;33.63;17.00;;;;;;;17.23;100.00;102007.84;4942745;28;20157;-92
2021/07/17 01:06:27;;;;;;;38.58;16.90;;;;;;;17.23;100.00;102002.41;4944138;28;20109;-88
2021/07/17 01:08:53;;;;;;;35.97;17.30;;;;;;;17.22;100.00;102003.47;4943972;28;20059;-89
2021/07/17 01:11:18;;;;;;;33.08;17.42;;;;;;;17.22;100.00;102006.16;4946131;28;20058;-90
2021/07/17 01:13:43;;;;;;;38.50;17.27;;;;;;;17.19;100.00;102001.09;4947956;28;20047;-90
2021/07/17 01:16:09;;;;;;;39.38;17.15;;;;;;;17.20;100.00;101991.94;4948332;28;20134;-91
2021/07/17 01:18:34;;;;;;;38.60;16.58;;;;;;;17.20;100.00;101991.94;4948727;29;20731;-88
2021/07/17 01:21:02;;;;;;;38.55;17.15;;;;;;;17.20;100.00;102000.06;4948641;28;20082;-91
2021/07/17 01:23:28;;;;;;;33.72;16.27;;;;;;;17.17;100.00;101994.16;4948028;29;20051;-92
2021/07/17 01:25:53;;;;;;;34.83;17.00;;;;;;;17.15;100.00;101999.78;4946998;28;20058;-88
2021/07/17 01:28:19;;;;;;;35.65;15.80;;;;;;;17.14;100.00;102000.78;4945754;28;20058;-90
2021/07/17 01:30:44;;;;;;;37.95;16.75;;;;;;;17.11;100.00;101996.56;4948983;28;20111;-89
2021/07/17 01:33:11;;;;;;;33.88;16.08;;;;;;;17.11;100.00;101993.00;4948668;28;20048;-90
2021/07/17 01:35:36;;;;;;;36.33;16.50;;;;;;;17.10;100.00;102002.19;4948569;28;20063;-91
2021/07/17 01:38:02;;;;;;;36.17;18.02;;;;;;;17.10;100.00;101994.03;4948666;28;20047;-89
2021/07/17 01:40:27;;;;;;;38.08;17.33;;;;;;;17.07;100.00;101994.41;4947362;28;20503;-91
2021/07/17 01:42:55;;;;;;;37.97;16.25;;;;;;;17.04;100.00;101995.59;4948247;28;20043;-90
2021/07/17 01:45:22;;;;;;;38.00;16.55;;;;;;;17.04;100.00;101992.88;4948387;28;20059;-91
2021/07/17 01:47:48;;;;;;;40.47;16.67;;;;;;;17.04;100.00;101994.75;4947807;28;20089;-90
2021/07/17 01:50:13;;;;;;;36.90;16.20;;;;;;;17.03;100.00;101991.22;4947996;28;20071;-90
2021/07/17 01:52:39;;;;;;;34.40;17.08;;;;;;;17.01;100.00;101992.41;4947401;28;20054;-91
2021/07/17 01:55:08;;;;;;;41.30;16.95;;;;;;;17.00;100.00;101990.69;4949092;28;21193;-91
2021/07/17 01:57:34;;;;;;;32.42;17.02;;;;;;;16.94;100.00;101991.41;4949165;28;20126;-91
2021/07/17 01:59:59;;;;;;;34.28;17.65;;;;;;;16.90;100.00;101989.06;4948676;28;20134;-88
2021/07/17 02:02:24;;;;;;;34.97;16.92;;;;;;;16.92;100.00;101994.31;4949063;28;20051;-90
2021/07/17 02:04:50;;;;;;;36.42;16.55;;;;;;;16.92;100.00;101989.72;4947461;28;20051;-88
2021/07/17 02:07:15;;;;;;;31.77;16.40;;;;;;;16.89;100.00;101984.66;4949201;28;20739;-89
2021/07/17 02:09:40;;;;;;;34.63;16.92;;;;;;;16.86;100.00;101987.72;4948602;28;20047;-93
2021/07/17 02:12:06;;;;;;;31.90;16.25;;;;;;;16.86;100.00;101995.88;4949194;28;20044;-89
2021/07/17 02:14:36;;;;;;;34.03;16.50;;;;;;;16.85;100.00;101983.31;4949156;28;20499;-91
2021/07/17 02:17:03;;;;;;;34.60;16.67;;;;;;;16.84;100.00;101981.63;4947532;28;20122;-88
2021/07/17 02:19:29;;;;;;;33.08;15.38;;;;;;;16.83;100.00;101984.50;4948049;28;20051;-89
2021/07/17 02:21:54;;;;;;;33.67;15.88;;;;;;;16.80;100.00;101984.84;4948310;28;20050;-90
2021/07/17 02:24:20;;;;;;;34.75;15.80;;;;;;;16.79;100.00;101983.19;4947927;28;20047;-89
2021/07/17 02:26:46;;;;;;;31.55;15.77;;;;;;;16.78;100.00;101982.34;4943435;28;20047;-89
2021/07/17 02:29:12;;;;;;;33.67;15.68;;;;;;;16.74;100.00;101988.25;4949003;28;20047;-88
2021/07/17 02:31:38;;;;;;;31.25;17.65;;;;;;;16.71;100.00;101981.31;4946895;28;20047;-90
2021/07/17 02:34:04;;;;;;;27.63;16.38;;;;;;;16.70;100.00;101985.88;4948586;28;20403;-89
2021/07/17 02:36:30;;;;;;;35.63;15.18;;;;;;;16.67;100.00;101990.81;4948193;28;20047;-90
2021/07/17 02:38:55;;;;;;;33.85;15.80;;;;;;;16.67;100.00;101988.94;4943952;28;20058;-89
2021/07/17 02:41:22;;;;;;;34.40;16.10;;;;;;;16.65;100.00;101990.16;4947960;28;20047;-89
2021/07/17 02:43:48;;;;;;;35.83;17.52;;;;;;;16.61;100.00;101986.94;4936665;28;20039;-90
2021/07/17 02:46:13;;;;;;;36.88;17.33;;;;;;;16.56;100.00;101983.91;4947061;29;20110;-91
2021/07/17 02:48:38;;;;;;;33.15;15.80;;;;;;;16.56;100.00;101988.50;4948188;28;20055;-89
2021/07/17 02:51:04;;;;;;;33.95;17.75;;;;;;;16.50;100.00;101983.78;4948099;28;20097;-90
2021/07/17 02:53:29;;;;;;;36.88;17.90;;;;;;;16.45;100.00;101976.16;4946820;28;20059;-90
2021/07/17 02:55:54;;;;;;;34.03;16.90;;;;;;;16.40;100.00;101982.13;4942672;28;20380;-90
2021/07/17 02:58:20;;;;;;;39.08;18.48;;;;;;;16.36;100.00;101986.16;4946754;28;20768;-90
2021/07/17 03:00:47;;;;;;;40.72;18.65;;;;;;;16.35;100.00;101989.06;4946924;28;20059;-88
2021/07/17 03:03:13;;;;;;;47.45;18.80;;;;;;;16.33;100.00;101991.09;4947872;28;20044;-89
2021/07/17 03:05:39;;;;;;;39.97;18.23;;;;;;;16.30;100.00;101984.16;4948252;28;20071;-91
2021/07/17 03:08:05;;;;;;;34.35;17.67;;;;;;;16.28;100.00;101986.19;4944404;29;20702;-88
2021/07/17 03:10:32;;;;;;;40.38;17.67;;;;;;;16.25;100.00;101981.13;4946111;28;20123;-90
2021/07/17 03:12:57;;;;;;;40.60;19.13;;;;;;;16.24;100.00;101984.84;4947689;28;20043;-90
2021/07/17 03:15:23;;;;;;;42.35;19.05;;;;;;;16.24;100.00;101985.69;4946807;29;20055;-93
2021/07/17 03:17:48;;;;;;;45.88;19.55;;;;;;;16.21;100.00;101980.63;4947352;28;20098;-91
2021/07/17 03:20:14;;;;;;;41.65;18.55;;;;;;;16.24;100.00;101990.28;4946578;28;20047;-89
2021/07/17 03:22:40;;;;;;;42.97;19.55;;;;;;;16.19;100.00;101988.06;4947246;28;20329;-89
2021/07/17 03:25:06;;;;;;;47.15;19.77;;;;;;;16.18;100.00;101986.38;4946902;28;20055;-90
2021/07/17 03:27:32;;;;;;;46.75;19.40;;;;;;;16.16;100.00;101985.72;4946457;28;20051;-90
2021/07/17 03:29:57;;;;;;;41.65;19.33;;;;;;;16.15;100.00;101992.16;4947030;28;20132;-90
2021/07/17 03:32:26;;;;;;;43.42;19.67;;;;;;;16.15;100.00;101992.16;4936034;28;20135;-91
2021/07/17 03:34:52;;;;;;;43.80;19.45;;;;;;;16.15;100.00;101994.84;4942440;28;20055;-90
2021/07/17 03:37:18;;;;;;;39.67;19.38;;;;;;;16.09;100.00;101995.53;4940867;29;20097;-91
2021/07/17 03:39:43;;;;;;;48.67;19.73;;;;;;;16.07;100.00;101988.59;4940848;28;20078;-91
2021/07/17 03:42:08;;;;;;;42.22;19.67;;;;;;;16.07;100.00;101997.56;4932844;28;20074;-90
2021/07/17 03:44:34;;;;;;;43.13;20.15;;;;;;;16.07;100.00;101994.03;4937786;28;20410;-90
2021/07/17 03:46:59;;;;;;;41.38;18.48;;;;;;;16.06;100.00;101992.34;4940621;28;20500;-89
2021/07/17 03:49:25;;;;;;;47.42;20.50;;;;;;;16.02;100.00;101987.28;4944772;28;20069;-90
2021/07/17 03:51:50;;;;;;;45.25;20.25;;;;;;;16.04;100.00;101991.66;4945615;28;20418;-90
2021/07/17 03:54:15;;;;;;;41.53;19.35;;;;;;;16.02;100.00;101987.28;4947603;28;20405;-89
2021/07/17 03:56:41;;;;;;;43.20;19.50;;;;;;;16.02;100.00;101987.28;4944438;28;20490;-88
2021/07/17 03:59:06;;;;;;;52.30;21.75;;;;;;;15.98;100.00;101988.63;4945417;28;20064;-89
2021/07/17 04:01:32;;;;;;;44.10;20.65;;;;;;;15.99;100.00;101993.00;4947428;28;20139;-90
2021/07/17 04:03:57;;;;;;;48.55;21.13;;;;;;;15.99;100.00;101992.16;4941543;28;21098;-91
2021/07/17 04:06:22;;;;;;;42.80;21.38;;;;;;;15.98;100.00;101983.19;4946043;28;20134;-90
2021/07/17 04:08:48;;;;;;;44.70;21.25;;;;;;;15.98;100.00;101991.31;4944717;28;20061;-90
2021/07/17 04:11:13;;;;;;;46.15;21.52;;;;;;;15.96;100.00;101987.09;4944850;28;20057;-91
2021/07/17 04:13:39;;;;;;;49.60;21.27;;;;;;;15.92;100.00;101989.31;4944083;28;20074;-89
2021/07/17 04:16:04;;;;;;;50.80;19.48;;;;;;;15.93;100.00;101992.84;4945278;28;20142;-91
2021/07/17 04:18:30;;;;;;;48.00;20.50;;;;;;;15.93;100.00;101984.72;4945718;28;20054;-91
2021/07/17 04:20:55;;;;;;;44.78;20.20;;;;;;;15.92;100.00;101981.19;4944081;28;20574;-90
2021/07/17 04:23:20;;;;;;;42.58;19.63;;;;;;;15.88;100.00;101979.84;4942025;28;20103;-91
2021/07/17 04:25:46;;;;;;;48.67;20.60;;;;;;;15.87;100.00;101988.97;4943034;28;20394;-89
2021/07/17 04:28:12;;;;;;;44.13;19.05;;;;;;;15.88;100.00;101984.38;4940773;29;20047;-90
2021/07/17 04:30:38;;;;;;;38.72;18.85;;;;;;;15.90;100.00;101988.63;4944930;28;20051;-91
2021/07/17 04:33:03;;;;;;;40.72;18.50;;;;;;;15.89;100.00;101992.34;4939201;28;20098;-90
2021/07/17 04:35:29;;;;;;;40.63;19.60;;;;;;;15.90;100.00;101993.19;4946137;28;20344;-89
2021/07/17 04:37:54;;;;;;;44.22;20.00;;;;;;;15.90;100.00;101985.91;4944258;28;20154;-90
2021/07/17 04:40:20;;;;;;;43.20;18.92;;;;;;;15.88;100.00;101985.25;4946313;28;20447;-88
2021/07/17 04:42:45;;;;;;;40.72;20.10;;;;;;;15.84;100.00;101970.34;4940989;28;20090;-90
2021/07/17 04:45:11;;;;;;;39.05;20.15;;;;;;;15.85;100.00;101980.16;4943475;28;20055;-92
2021/07/17 04:47:36;;;;;;;39.42;19.05;;;;;;;15.87;100.00;101978.13;4946121;28;20074;-90
2021/07/17 04:50:03;;;;;;;34.72;19.42;;;;;;;15.87;100.00;101983.53;4944279;28;20102;-92
2021/07/17 04:52:30;;;;;;;32.65;18.05;;;;;;;15.89;100.00;101986.09;4942474;28;20102;-90
2021/07/17 04:54:55;;;;;;;40.88;18.75;;;;;;;15.91;100.00;101986.75;4943705;28;20047;-88
2021/07/17 04:57:21;;;;;;;36.53;18.17;;;;;;;15.91;100.00;101989.44;4942866;28;20055;-92
2021/07/17 04:59:46;;;;;;;37.20;18.58;;;;;;;15.94;100.00;101986.41;4944714;28;20077;-89
2021/07/17 05:02:12;;;;;;;38.80;19.23;;;;;;;15.89;100.00;101996.94;4928284;28;20058;-90
2021/07/17 05:04:37;;;;;;;39.53;18.73;;;;;;;15.92;100.00;101992.00;4941796;28;20051;-91
2021/07/17 05:07:03;;;;;;;29.77;17.73;;;;;;;15.92;100.00;101992.00;4942731;28;20122;-88
2021/07/17 05:09:28;;;;;;;41.97;17.95;;;;;;;15.94;100.00;101989.97;4945165;28;20050;-89
2021/07/17 05:11:54;;;;;;;34.90;18.30;;;;;;;15.96;100.00;101995.22;4943566;28;20048;-90
2021/07/17 05:14:19;;;;;;;38.15;17.52;;;;;;;15.96;100.00;101990.63;4941456;28;20039;-91
2021/07/17 05:16:45;;;;;;;44.45;17.25;;;;;;;15.95;100.00;101997.06;4945135;28;20051;-89
2021/07/17 05:19:10;;;;;;;33.00;18.33;;;;;;;15.97;100.00;101994.22;4942894;28;20063;-90
2021/07/17 05:21:36;;;;;;;32.95;17.25;;;;;;;16.01;100.00;101999.09;4944417;28;20047;-91
2021/07/17 05:24:03;;;;;;;37.10;18.10;;;;;;;16.07;100.00;102003.00;4939113;28;20055;-90
2021/07/17 05:26:28;;;;;;;28.75;16.58;;;;;;;16.10;100.00;102007.22;4943995;28;20058;-89
2021/07/17 05:28:54;;;;;;;35.70;17.27;;;;;;;16.15;100.00;102002.13;4944782;28;20075;-91
2021/07/17 05:31:19;;;;;;;36.28;16.63;;;;;;;16.13;100.00;102004.16;4944997;28;20062;-89
2021/07/17 05:33:45;;;;;;;30.67;16.45;;;;;;;16.19;100.00;102008.88;4941494;28;20055;-90
2021/07/17 05:36:10;;;;;;;40.13;16.58;;;;;;;16.23;100.00;102007.53;4939830;28;21869;-90
2021/07/17 05:38:35;;;;;;;31.92;15.90;;;;;;;16.25;100.00;102010.91;4936111;28;20035;-92
2021/07/17 05:41:01;;;;;;;38.17;16.40;;;;;;;16.34;100.00;102011.75;4947506;28;20047;-91
2021/07/17 05:43:26;;;;;;;29.85;16.10;;;;;;;16.37;100.00;102014.97;4946606;28;20098;-91
2021/07/17 05:45:53;;;;;;;29.05;16.35;;;;;;;16.41;100.00;102018.16;4946334;28;20043;-90
2021/07/17 05:48:19;;;;;;;28.50;15.40;;;;;;;16.44;100.00;102007.00;4948117;28;20130;-89
2021/07/17 05:50:44;;;;;;;30.35;14.70;;;;;;;16.43;100.00;102016.97;4946344;28;20133;-90
2021/07/17 05:53:10;;;;;;;23.77;15.18;;;;;;;16.44;100.00;102021.38;4957646;28;20409;-91
2021/07/17 05:55:35;;;;;;;33.92;15.85;;;;;;;16.52;100.00;102025.09;4947854;28;20042;-91
2021/07/17 05:58:01;;;;;;;26.98;14.10;;;;;;;16.55;100.00;102027.47;4947202;28;20055;-90
2021/07/17 06:00:26;;;;;;;30.33;14.73;;;;;;;16.63;100.00;102024.69;4945425;28;20051;-89
2021/07/17 06:02:52;;;;;;;32.80;15.52;;;;;;;16.70;100.00;102028.41;4942708;28;20138;-90
2021/07/17 06:05:17;;;;;;;28.58;13.52;;;;;;;16.72;100.00;102033.69;4947232;28;20043;-90
2021/07/17 06:07:43;;;;;;;23.92;12.52;;;;;;;16.76;100.00;102030.44;4942311;28;20087;-92
2021/07/17 06:10:09;;;;;;;30.30;13.68;;;;;;;16.80;100.00;102025.53;4940799;28;20054;-90
2021/07/17 06:12:34;;;;;;;29.45;13.70;;;;;;;16.89;100.00;102036.19;4943738;28;20051;-89
2021/07/17 06:15:00;;;;;;;24.13;11.57;;;;;;;17.00;100.00;102036.78;4944094;28;20055;-91
2021/07/17 06:17:25;;;;;;;23.10;11.82;;;;;;;17.10;100.00;102045.56;4948076;28;20051;-92
2021/07/17 06:19:51;;;;;;;23.80;11.05;;;;;;;17.15;100.00;102037.75;4945735;28;20676;-91
2021/07/17 06:22:16;;;;;;;23.65;12.00;;;;;;;17.24;100.00;102030.41;4946242;28;20134;-91
2021/07/17 06:24:42;;;;;;;22.90;10.77;;;;;;;17.24;100.00;102031.25;4945455;28;20053;-90
2021/07/17 06:27:08;;;;;;;22.02;9.60;;;;;;;17.37;100.00;102031.50;4942438;28;20475;-90
2021/07/17 06:29:34;;;;;;;22.30;10.07;;;;;;;17.47;100.00;102036.72;4943886;29;20071;-91
2021/07/17 06:32:00;;;;;;;18.75;9.15;;;;;;;17.55;100.00;102030.38;4942372;28;20097;-91
2021/07/17 06:34:25;;;;;;;18.23;7.50;;;;;;;17.63;100.00;102035.75;4948521;28;20640;-90
2021/07/17 06:36:51;;;;;;;18.52;7.95;;;;;;;17.70;100.00;102034.00;4945616;28;20121;-89
2021/07/17 06:39:17;;;;;;;16.25;8.55;;;;;;;17.75;100.00;102031.59;4945915;28;20071;-91
2021/07/17 06:41:42;;;;;;;17.25;7.25;;;;;;;17.87;100.00;102036.63;4946982;28;20070;-91
2021/07/17 06:44:08;;;;;;;15.20;7.28;;;;;;;17.92;100.00;102045.06;4944601;28;20086;-91
2021/07/17 06:46:34;;;;;;;17.90;6.70;;;;;;;17.98;100.00;102047.03;4942779;28;20074;-93
2021/07/17 06:49:00;;;;;;;12.43;7.00;;;;;;;18.08;100.00;102050.34;4942282;28;20055;-91
2021/07/17 06:51:25;;;;;;;16.90;7.18;;;;;;;18.14;100.00;102056.94;4942873;28;20059;-89
2021/07/17 06:53:51;;;;;;;15.75;6.45;;;;;;;18.14;99.46;102057.78;4936465;28;20050;-91
2021/07/17 06:56:17;;;;;;;13.05;6.63;;;;;;;18.15;99.91;102062.16;4959284;28;20043;-91
2021/07/17 06:58:43;;;;;;;17.83;6.85;;;;;;;18.25;99.62;102062.75;4920489;29;20839;-91
2021/07/17 07:01:08;;;;;;;15.77;6.72;;;;;;;18.29;98.22;102062.38;4936943;28;20055;-93
2021/07/17 07:03:34;;;;;;;15.30;6.35;;;;;;;18.34;97.68;102054.53;4938471;28;21502;-92
2021/07/17 07:05:59;;;;;;;15.30;6.95;;;;;;;18.39;97.68;102043.97;4935972;28;20074;-90
2021/07/17 07:08:25;;;;;;;14.95;6.32;;;;;;;18.41;97.57;102058.19;4923495;28;20052;-90
2021/07/17 07:10:50;;;;;;;13.70;6.57;;;;;;;18.45;96.97;102051.38;4934349;28;20071;-89
2021/07/17 07:13:17;;;;;;;16.33;6.35;;;;;;;18.54;97.07;102066.56;4940249;28;20050;-90
2021/07/17 07:15:43;;;;;;;15.48;5.53;;;;;;;18.64;97.16;102061.69;4919050;28;20063;-90
2021/07/17 07:18:10;;;;;;;14.30;5.28;;;;;;;18.68;95.81;102071.16;4901743;29;20324;-92
2021/07/17 07:20:36;;;;;;;11.48;5.05;;;;;;;18.82;95.43;102065.97;4928790;28;20047;-91
2021/07/17 07:23:02;;;;;;;16.35;5.97;;;;;;;18.88;94.44;102070.63;4918417;28;21405;-89
2021/07/17 07:25:28;;;;;;;15.38;5.07;;;;;;;18.92;93.91;102070.06;4940098;28;20524;-91
2021/07/17 07:27:53;;;;;;;9.63;4.60;;;;;;;18.97;93.24;102074.09;4944465;28;20122;-91
2021/07/17 07:30:19;;;;;;;14.05;4.78;;;;;;;19.02;92.92;102074.34;4946147;28;20081;-91
2021/07/17 07:32:44;;;;;;;11.77;4.20;;;;;;;19.06;93.71;102079.25;4945781;28;20047;-89
2021/07/17 07:35:10;;;;;;;11.98;4.60;;;;;;;19.09;92.77;102081.59;4945618;28;20043;-90
2021/07/17 07:37:35;;;;;;;12.60;4.47;;;;;;;19.15;92.26;102078.09;4946639;28;20071;-90
2021/07/17 07:40:03;;;;;;;10.90;4.57;;;;;;;19.22;92.07;102086.38;4942372;28;20051;-91
2021/07/17 07:42:28;;;;;;;10.68;5.18;;;;;;;19.31;92.44;102077.06;4934184;28;20518;-90
2021/07/17 07:44:54;;;;;;;14.80;5.45;;;;;;;19.32;90.90;102080.63;4943465;28;20046;-92
2021/07/17 07:47:19;;;;;;;13.65;5.40;;;;;;;19.35;90.86;102091.13;4937478;28;20083;-91
2021/07/17 07:49:46;;;;;;;12.73;5.25;;;;;;;19.35;90.67;102083.78;4944748;28;20498;-90
2021/07/17 07:52:12;;;;;;;12.57;4.80;;;;;;;19.34;89.94;102073.94;4946598;28;20067;-91
2021/07/17 07:54:38;;;;;;;11.07;4.15;;;;;;;19.34;90.26;102079.38;4943771;28;20044;-91
2021/07/17 07:57:04;;;;;;;9.10;4.05;;;;;;;19.48;90.73;102091.28;4944166;28;20043;-91
2021/07/17 07:59:29;;;;;;;11.52;4.70;;;;;;;19.58;90.40;102083.63;4941918;28;20062;-91
2021/07/17 08:01:55;;;;;;;11.05;4.95;;;;;;;19.61;89.92;102075.06;4935003;28;20410;-91
2021/07/17 08:04:20;;;;;;;11.57;4.18;;;;;;;19.71;89.53;102079.38;4943528;28;20043;-92
2021/07/17 08:06:45;;;;;;;11.60;5.05;;;;;;;19.82;89.70;102076.16;4945142;28;20369;-93
2021/07/17 08:09:11;;;;;;;11.00;4.53;;;;;;;19.84;88.04;102077.66;4944563;28;20051;-92
2021/07/17 08:11:36;;;;;;;12.25;4.53;;;;;;;19.88;88.93;102077.25;4947026;28;20102;-91
2021/07/17 08:14:02;;;;;;;12.88;4.55;;;;;;;19.94;89.00;102080.06;4940420;28;20047;-91
2021/07/17 08:16:27;;;;;;;10.15;4.63;;;;;;;20.00;88.65;102073.84;4943623;28;20046;-90
2021/07/17 08:18:53;;;;;;;10.63;4.35;;;;;;;20.11;87.75;102068.88;4943716;28;20047;-90
2021/07/17 08:21:18;;;;;;;9.95;4.57;;;;;;;20.19;87.81;102068.75;4948543;28;20039;-90
2021/07/17 08:23:45;;;;;;;10.73;4.03;;;;;;;20.28;86.66;102060.25;4943202;29;20043;-92
2021/07/17 08:26:11;;;;;;;13.07;3.97;;;;;;;20.38;85.92;102072.69;4942648;28;20129;-93
2021/07/17 08:28:37;;;;;;;13.95;4.30;;;;;;;20.51;87.42;102075.47;4925276;29;20541;-89
2021/07/17 08:31:02;;;;;;;16.15;4.47;;;;;;;20.61;86.22;102070.56;4939354;29;20044;-92
2021/07/17 08:33:28;;;;;;;12.68;4.80;;;;;;;20.63;87.28;102062.16;4934841;28;20078;-91
2021/07/17 08:35:53;;;;;;;11.63;4.82;;;;;;;20.71;86.67;102076.50;4939860;28;20502;-89
2021/07/17 08:38:18;;;;;;;10.10;3.72;;;;;;;20.84;86.08;102081.19;4946079;28;20507;-91
2021/07/17 08:40:55;;;;;;;7.05;3.10;;;;;;;20.88;83.61;102073.44;4943521;28;20054;-90
2021/07/17 08:43:21;;;;;;;11.27;3.90;;;;;;;20.91;84.48;102075.75;4941299;28;20043;-89
2021/07/17 08:45:47;;;;;;;7.18;3.55;;;;;;;20.98;84.28;102078.53;4947060;28;20074;-92
2021/07/17 08:48:15;;;;;;;10.95;3.92;;;;;;;20.96;83.65;102070.53;4941704;29;20102;-90
2021/07/17 08:50:41;;;;;;;10.80;3.78;;;;;;;21.10;84.65;102074.19;4948641;28;20047;-89
2021/07/17 08:53:07;;;;;;;7.70;2.95;;;;;;;21.21;81.36;102079.06;4943801;28;20624;-92
2021/07/17 08:55:33;;;;;;;7.22;2.67;;;;;;;21.31;81.28;102075.94;4944931;28;20091;-91
2021/07/17 08:57:59;;;;;;;7.75;2.17;;;;;;;21.33;79.35;102082.88;4945896;28;20043;-91
2021/07/17 09:00:30;;;;;;;3.38;1.80;;;;;;;21.38;79.28;102080.41;4945614;28;20118;-90
2021/07/17 09:03:03;;;;;;;7.63;2.50;;;;;;;21.52;79.46;102085.91;4939305;28;20106;-91
2021/07/17 09:05:31;;;;;;;7.38;2.33;;;;;;;21.54;79.25;102083.81;4947402;28;20368;-93
2021/07/17 09:07:57;;;;;;;5.90;2.88;;;;;;;21.61;79.54;102092.88;4926834;29;20095;-91
2021/07/17 09:10:46;;;;;;;6.75;2.95;;;;;;;21.68;79.23;102087.44;4928124;29;20051;-91
2021/07/17 09:13:21;;;;;;;7.00;2.60;;;;;;;21.72;79.11;102081.38;4946466;28;20055;-91
2021/07/17 09:15:50;;;;;;;8.30;3.00;;;;;;;21.79;78.11;102079.47;4951789;28;20053;-91
2021/07/17 09:18:21;;;;;;;7.43;2.53;;;;;;;21.88;77.56;102082.00;4947221;28;20601;-89
2021/07/17 09:21:00;;;;;;;7.60;2.50;;;;;;;21.99;78.62;102081.38;4953420;28;20097;-92
2021/07/17 09:23:31;;;;;;;;;;;;;;;22.03;77.77;102085.38;4947774;29;20103;-91
2021/07/17 09:25:57;;;;;;;6.57;2.50;;;;;;;22.09;77.74;102079.91;4947859;28;19922;-91
2021/07/17 09:28:29;;;;;;;7.00;2.30;;;;;;;22.16;77.75;102079.09;4947952;28;20081;-90
2021/07/17 09:30:58;;;;;;;9.00;2.80;;;;;;;22.25;78.77;102073.22;4951911;28;20117;-92
2021/07/17 09:33:24;;;;;;;7.07;2.00;;;;;;;22.43;77.85;102077.19;4948714;28;20068;-91
2021/07/17 09:35:52;;;;;;;8.18;2.17;;;;;;;22.48;76.26;102072.78;4955811;28;20043;-89
2021/07/17 09:38:18;;;;;;;7.63;2.60;;;;;;;22.50;76.20;102078.06;4950959;28;20047;-89
2021/07/17 09:41:04;;;;;;;6.20;2.42;;;;;;;22.49;75.85;102079.09;4951127;28;20315;-89
2021/07/17 09:43:39;;;;;;;8.80;1.92;;;;;;;22.47;76.19;102075.72;4954065;28;20051;-90
2021/07/17 09:46:24;;;;;;;6.30;2.22;;;;;;;22.44;76.25;102066.06;4951478;28;20089;-90
2021/07/17 09:48:59;;;;;;;5.00;2.05;;;;;;;22.47;76.66;102065.63;4953915;28;20039;-89
2021/07/17 09:51:28;;;;;;;7.00;2.30;;;;;;;22.63;75.76;102071.72;4936650;28;20106;-90
2021/07/17 09:54:00;;;;;;;7.55;1.80;;;;;;;22.62;74.41;102057.19;4934646;28;20055;-91
2021/07/17 09:56:35;;;;;;;4.95;1.52;;;;;;;22.64;74.32;102074.25;4943130;28;20047;-91
2021/07/17 09:59:03;;;;;;;6.32;2.05;;;;;;;22.68;74.69;102067.28;4946316;28;20379;-92
2021/07/17 10:01:34;;;;;;;3.55;1.77;;;;;;;22.78;74.71;102066.81;4946422;28;20079;-90
2021/07/17 10:04:10;;;;;;;7.35;2.20;;;;;;;22.75;73.51;102059.88;4941062;28;20177;-91
2021/07/17 10:06:46;;;;;;;6.35;1.92;;;;;;;22.69;74.40;102071.69;4944053;28;20043;-90
2021/07/17 10:09:12;;;;;;;5.13;2.15;;;;;;;22.71;73.51;102068.75;4943027;28;20054;-90
2021/07/17 10:11:38;;;;;;;5.17;2.20;;;;;;;22.77;74.80;102065.16;4949185;28;20059;-91
2021/07/17 10:14:28;;;;;;;6.65;1.75;;;;;;;22.87;72.20;102064.69;4943239;28;20299;-91
2021/07/17 10:16:56;;;;;;;8.35;2.13;;;;;;;22.95;74.23;102069.97;4940450;28;20047;-91
2021/07/17 10:19:23;;;;;;;9.13;1.98;;;;;;;23.02;73.38;102062.59;4939150;28;20051;-91
2021/07/17 10:21:49;;;;;;;6.38;2.20;;;;;;;23.21;75.32;102060.81;4945123;28;20078;-90
2021/07/17 10:24:16;;;;;;;7.30;2.03;;;;;;;23.29;72.71;102062.47;4948028;28;20039;-92
2021/07/17 10:26:42;;;;;;;5.82;2.20;;;;;;;23.24;71.97;102059.53;4941516;28;20146;-92
2021/07/17 10:29:10;;;;;;;5.30;1.90;;;;;;;23.30;70.83;102055.91;4940098;28;20051;-90
2021/07/17 10:31:37;;;;;;;6.03;1.90;;;;;;;23.41;71.68;102072.50;4933154;28;20146;-91
2021/07/17 10:34:04;;;;;;;5.57;1.75;;;;;;;23.50;70.60;102059.38;4942243;28;20222;-92
2021/07/17 10:36:33;;;;;;;6.22;1.45;;;;;;;23.57;71.04;102054.72;4943607;28;20441;-90
2021/07/17 10:39:02;;;;;;;4.70;1.63;;;;;;;23.61;71.64;102058.69;4942742;28;20191;-91
2021/07/17 10:41:32;;;;;;;7.60;2.20;;;;;;;23.64;71.61;102057.41;4943342;28;20063;-90
2021/07/17 10:43:58;;;;;;;4.57;1.90;;;;;;;23.58;70.52;102055.56;4943879;28;20053;-91
2021/07/17 10:46:34;;;;;;;6.50;1.85;;;;;;;23.58;69.47;102045.44;4942501;28;20055;-91
2021/07/17 10:49:04;;;;;;;3.35;1.67;;;;;;;23.65;69.47;102054.47;4940093;28;20051;-90
2021/07/17 10:51:35;;;;;;;7.97;2.20;;;;;;;23.73;69.26;102050.63;4942470;28;20054;-90
2021/07/17 10:54:27;;;;;;;8.57;2.53;;;;;;;23.83;69.37;102051.00;4942177;28;20106;-91
2021/07/17 10:56:53;;;;;;;5.20;1.55;;;;;;;23.87;70.04;102045.88;4933320;28;20043;-90
2021/07/17 10:59:19;;;;;;;4.28;1.55;;;;;;;23.94;70.65;102059.53;4941958;28;20047;-92
2021/07/17 11:01:57;;;;;;;7.20;1.92;;;;;;;23.88;68.37;102044.84;4942460;28;20484;-91
2021/07/17 11:04:44;;;;;;;6.10;1.70;;;;;;;23.86;67.94;102058.75;4942743;28;20079;-90
2021/07/17 11:07:18;;;;;;;6.38;1.55;;;;;;;23.91;68.43;102060.84;4942096;28;20181;-90